createdAt,value
2018-08-11T12:45:53.803Z,46.37
2018-08-11T12:48:27.358Z,41.15
2018-08-11T12:51:01.479Z,47.87
2018-08-11T12:57:10.767Z,54.98
2018-08-11T12:59:44.428Z,55.90
2018-08-11T13:10:45.466Z,64.18
2018-08-11T13:13:19.170Z,68.09
2018-08-11T13:15:52.167Z,66.94
2018-08-11T13:18:21.950Z,63.97
2018-08-11T13:20:52.005Z,60.27
2018-08-11T13:23:25.939Z,57.24
2018-08-11T13:25:55.886Z,56.58
2018-08-11T13:28:25.888Z,55.74
2018-08-11T13:30:55.974Z,56.09
2018-08-11T13:33:25.930Z,55.82
2018-08-11T13:35:56.465Z,56.89
2018-08-11T13:38:26.629Z,56.13
2018-08-11T13:40:56.544Z,56.13
2018-08-11T13:43:26.663Z,55.99
2018-08-11T13:45:57.160Z,54.77
2018-08-11T13:48:27.076Z,54.87
2018-08-11T13:50:56.951Z,53.27
2018-08-11T13:53:26.890Z,51.52
2018-08-11T13:55:56.745Z,48.83
2018-08-11T13:58:26.602Z,47.42
2018-08-11T14:00:56.489Z,47.32
2018-08-11T14:03:26.272Z,48.71
2018-08-11T14:05:56.280Z,48.25
2018-08-11T14:08:26.154Z,48.83
2018-08-11T14:11:03.887Z,47.44
2018-08-11T14:13:34.899Z,46.60
2018-08-11T14:16:06.522Z,45.12
2018-08-11T14:18:36.628Z,41.73
2018-08-11T14:21:06.786Z,36.98
2018-08-11T14:23:36.927Z,35.01
2018-08-11T14:26:07.198Z,34.18
2018-08-11T14:28:37.478Z,34.35
2018-08-11T14:31:10.082Z,34.21
2018-08-11T14:33:39.891Z,33.36
2018-08-11T14:36:09.904Z,33.14
2018-08-11T14:38:40.064Z,31.98
2018-08-11T14:41:10.362Z,30.42
2018-08-11T14:43:40.382Z,29.91
2018-08-11T14:46:10.320Z,30.37
2018-08-11T14:48:41.837Z,28.41
2018-08-11T14:51:11.828Z,27.99
2018-08-11T14:53:41.765Z,27.16
2018-08-11T14:56:18.161Z,26.76
2018-08-11T14:58:49.916Z,25.98
2018-08-11T15:01:23.947Z,27.84
2018-08-11T15:03:54.152Z,26.45
2018-08-11T15:06:24.050Z,26.44
2018-08-11T15:08:54.341Z,26.20
2018-08-11T15:11:24.817Z,25.23
2018-08-11T15:13:55.160Z,25.46
2018-08-11T15:16:25.685Z,27.40
2018-08-11T15:18:55.808Z,27.04
2018-08-11T15:21:25.939Z,25.79
2018-08-11T15:23:56.655Z,26.92
2018-08-11T15:26:28.469Z,25.44
2018-08-11T15:28:59.677Z,25.77
2018-08-11T15:31:30.391Z,24.28
2018-08-11T15:34:02.424Z,25.05
2018-08-11T15:36:32.741Z,23.73
2018-08-11T15:39:03.031Z,23.57
2018-08-11T15:41:33.358Z,22.79
2018-08-11T15:44:04.462Z,23.96
2018-08-11T15:46:35.193Z,23.92
2018-08-11T15:49:05.218Z,23.37
2018-08-11T15:51:42.779Z,22.67
2018-08-11T15:54:12.927Z,22.14
2018-08-11T15:56:42.905Z,23.02
2018-08-11T15:59:13.288Z,24.39
2018-08-11T16:01:43.635Z,24.07
2018-08-11T16:04:14.081Z,23.15
2018-08-11T16:06:53.773Z,22.42
2018-08-11T16:09:24.028Z,22.53
2018-08-11T16:11:55.370Z,23.95
2018-08-11T16:14:25.720Z,24.48
2018-08-11T16:16:55.980Z,24.18
2018-08-11T16:19:26.148Z,23.70
2018-08-11T16:21:56.885Z,23.99
2018-08-11T16:24:27.195Z,24.28
2018-08-11T16:26:57.407Z,23.82
2018-08-11T16:29:27.739Z,23.47
2018-08-11T16:31:58.159Z,23.50
2018-08-11T16:34:28.318Z,24.19
2018-08-11T16:36:58.748Z,23.28
2018-08-11T16:42:13.798Z,23.73
2018-08-11T16:44:44.447Z,22.52
2018-08-11T16:47:16.197Z,23.17
2018-08-11T16:49:50.645Z,24.05
2018-08-11T16:52:21.348Z,24.25
2018-08-11T16:54:58.844Z,23.79
2018-08-11T16:57:30.199Z,24.14
2018-08-11T17:00:01.137Z,24.19
2018-08-11T17:02:31.867Z,25.17
2018-08-11T17:05:02.071Z,24.42
2018-08-11T17:07:32.016Z,24.59
2018-08-11T17:10:02.096Z,24.12
2018-08-11T17:12:31.922Z,23.78
2018-08-11T17:15:02.100Z,24.04
2018-08-11T17:17:32.004Z,23.56
2018-08-11T17:20:02.245Z,24.17
2018-08-11T17:22:32.053Z,24.14
2018-08-11T17:25:01.994Z,23.34
2018-08-11T17:27:32.254Z,24.77
2018-08-11T17:30:02.225Z,23.45
2018-08-11T17:32:32.283Z,23.39
2018-08-11T17:35:02.472Z,23.43
2018-08-11T17:37:32.269Z,23.67
2018-08-11T17:40:02.207Z,24.33
2018-08-11T17:42:32.065Z,24.01
2018-08-11T17:45:01.987Z,24.29
2018-08-11T17:47:31.829Z,23.95
2018-08-11T17:50:02.292Z,25.04
2018-08-11T17:52:32.345Z,24.98
2018-08-11T17:55:02.245Z,26.16
2018-08-11T17:57:32.306Z,26.10
2018-08-11T18:00:02.507Z,26.82
2018-08-11T18:02:32.481Z,26.75
2018-08-11T18:05:02.387Z,26.84
2018-08-11T18:07:32.293Z,27.82
2018-08-11T18:10:02.654Z,27.73
2018-08-11T18:12:32.850Z,27.89
2018-08-11T18:15:02.714Z,29.05
2018-08-11T18:17:32.776Z,29.24
2018-08-11T18:20:02.806Z,29.49
2018-08-11T18:22:32.833Z,30.70
2018-08-11T18:25:02.754Z,31.51
2018-08-11T18:30:18.310Z,36.04
2018-08-11T18:32:48.073Z,38.11
2018-08-11T18:35:18.244Z,39.16
2018-08-11T18:37:48.090Z,39.96
2018-08-11T18:40:17.979Z,40.89
2018-08-11T18:42:47.924Z,42.40
2018-08-11T18:45:17.815Z,43.50
2018-08-11T18:47:47.714Z,44.46
2018-08-11T18:50:17.687Z,45.16
2018-08-11T18:52:47.606Z,45.84
2018-08-11T18:55:17.486Z,46.50
2018-08-11T18:57:47.851Z,47.77
2018-08-11T19:00:19.158Z,48.55
2018-08-11T19:02:48.991Z,48.71
2018-08-11T19:05:18.787Z,49.66
2018-08-11T19:07:48.814Z,49.88
2018-08-11T19:10:18.714Z,50.35
2018-08-11T19:12:48.893Z,51.23
2018-08-11T19:15:19.312Z,51.57
2018-08-11T19:17:49.575Z,51.32
2018-08-11T19:20:20.367Z,51.78
2018-08-11T19:22:50.421Z,51.97
2018-08-11T19:25:19.873Z,53.08
2018-08-11T19:27:49.315Z,53.31
2018-08-11T19:30:18.742Z,53.76
2018-08-11T19:32:48.302Z,54.19
2018-08-11T19:35:17.760Z,54.16
2018-08-11T19:37:47.121Z,54.44
2018-08-11T19:40:16.530Z,54.44
2018-08-11T19:42:46.295Z,54.47
2018-08-11T19:45:18.039Z,55.09
2018-08-11T19:47:47.449Z,54.96
2018-08-11T19:50:17.167Z,55.04
2018-08-11T19:52:47.161Z,55.61
2018-08-11T19:55:18.832Z,56.12
2018-08-11T19:57:48.904Z,55.29
2018-08-11T20:00:19.008Z,55.90
2018-08-11T20:02:59.783Z,55.85
2018-08-11T20:05:30.165Z,56.39
2018-08-11T20:08:02.536Z,56.71
2018-08-11T20:10:32.251Z,56.09
2018-08-11T20:13:02.375Z,56.34
2018-08-11T20:15:32.160Z,56.44
2018-08-11T20:18:02.228Z,57.07
2018-08-11T20:20:32.355Z,57.12
2018-08-11T20:23:02.384Z,56.94
2018-08-11T20:25:31.862Z,57.33
2018-08-11T20:28:05.161Z,57.44
2018-08-11T20:30:34.632Z,56.74
2018-08-11T20:33:13.807Z,57.28
2018-08-11T20:35:47.666Z,57.37
2018-08-11T20:38:18.138Z,57.29
2018-08-11T20:40:47.731Z,57.10
2018-08-11T20:43:17.115Z,57.80
2018-08-11T20:45:46.694Z,57.67
2018-08-11T20:48:16.321Z,57.75
2018-08-11T20:50:45.777Z,57.91
2018-08-11T20:53:15.179Z,58.41
2018-08-11T20:55:44.818Z,58.20
2018-08-11T20:58:14.345Z,57.93
2018-08-11T21:00:45.258Z,58.21
2018-08-11T21:03:14.808Z,58.89
2018-08-11T21:05:45.331Z,58.59
2018-08-11T21:08:14.851Z,59.36
2018-08-11T21:10:46.148Z,58.85
2018-08-11T21:13:16.119Z,59.66
2018-08-11T21:15:48.075Z,58.71
2018-08-11T21:18:17.820Z,59.20
2018-08-11T21:20:47.364Z,58.89
2018-08-11T21:23:17.279Z,59.20
2018-08-11T21:25:47.228Z,59.20
2018-08-11T21:28:17.232Z,59.11
2018-08-11T21:30:52.894Z,59.32
2018-08-11T21:33:22.312Z,59.55
2018-08-11T21:35:51.926Z,59.37
2018-08-11T21:38:21.370Z,59.67
2018-08-11T21:40:57.098Z,60.42
2018-08-11T21:43:26.765Z,60.38
2018-08-11T21:45:59.723Z,60.26
2018-08-11T21:48:33.186Z,60.10
2018-08-11T21:51:02.735Z,60.33
2018-08-11T21:53:32.241Z,60.81
2018-08-11T21:56:01.751Z,60.42
2018-08-11T21:58:31.226Z,61.15
2018-08-11T22:01:11.299Z,61.11
2018-08-11T22:03:41.447Z,60.14
2018-08-11T22:06:11.018Z,60.17
2018-08-11T22:08:40.558Z,60.41
2018-08-11T22:11:09.997Z,60.70
2018-08-11T22:13:39.618Z,60.28
2018-08-11T22:16:09.105Z,60.05
2018-08-11T22:18:38.619Z,60.23
2018-08-11T22:21:08.109Z,61.03
2018-08-11T22:23:37.495Z,60.86
2018-08-11T22:26:07.095Z,60.99
2018-08-11T22:28:36.527Z,61.54
2018-08-11T22:31:05.946Z,60.83
2018-08-11T22:33:35.381Z,60.93
2018-08-11T22:36:05.306Z,60.92
2018-08-11T22:38:34.820Z,61.64
2018-08-11T22:41:04.268Z,62.42
2018-08-11T22:43:33.695Z,61.77
2018-08-11T22:46:03.151Z,62.48
2018-08-11T22:48:32.961Z,62.17
2018-08-11T22:51:02.398Z,62.80
2018-08-11T22:53:31.914Z,62.64
2018-08-11T22:56:02.000Z,62.45
2018-08-11T22:59:02.190Z,63.14
2018-08-11T23:01:31.619Z,62.72
2018-08-11T23:04:01.102Z,62.98
2018-08-11T23:06:40.592Z,62.97
2018-08-11T23:09:20.642Z,63.80
2018-08-11T23:11:56.903Z,63.63
2018-08-11T23:14:33.793Z,63.87
2018-08-11T23:17:10.910Z,63.58
2018-08-11T23:19:47.847Z,64.18
2018-08-11T23:22:24.761Z,64.03
2018-08-11T23:25:01.660Z,63.51
2018-08-11T23:27:38.358Z,64.25
2018-08-11T23:30:21.203Z,64.86
2018-08-11T23:32:57.536Z,64.34
2018-08-11T23:35:34.446Z,65.01
2018-08-11T23:38:11.924Z,64.75
2018-08-11T23:40:48.346Z,65.02
2018-08-11T23:43:25.449Z,64.89
2018-08-11T23:46:03.103Z,65.34
2018-08-11T23:48:44.561Z,65.68
2018-08-11T23:51:19.383Z,65.70
2018-08-11T23:53:54.397Z,65.71
2018-08-11T23:56:28.517Z,65.40
2018-08-11T23:59:05.858Z,65.29
